sensor_id;sensor_type;location;lat;lon;timestamp;P1;durP1;ratioP1;P2;durP2;ratioP2
11791;SDS011;5953;52.372;9.918;2023-08-17T00:00:27;5.30;;;2.50;;
11791;SDS011;5953;52.372;9.918;2023-08-17T00:02:55;3.07;;;1.80;;
11791;SDS011;5953;52.372;9.918;2023-08-17T00:05:23;5.33;;;2.00;;
11791;SDS011;5953;52.372;9.918;2023-08-17T00:07:52;6.00;;;2.13;;
11791;SDS011;5953;52.372;9.918;2023-08-17T00:10:22;3.37;;;2.00;;
11791;SDS011;5953;52.372;9.918;2023-08-17T00:12:49;5.10;;;2.27;;
11791;SDS011;5953;52.372;9.918;2023-08-17T00:15:17;3.77;;;2.10;;
11791;SDS011;5953;52.372;9.918;2023-08-17T00:17:45;9.40;;;2.57;;
11791;SDS011;5953;52.372;9.918;2023-08-17T00:20:13;3.77;;;2.10;;
11791;SDS011;5953;52.372;9.918;2023-08-17T00:22:41;4.63;;;2.13;;
11791;SDS011;5953;52.372;9.918;2023-08-17T00:25:09;3.67;;;1.93;;
11791;SDS011;5953;52.372;9.918;2023-08-17T00:27:38;5.33;;;2.20;;
11791;SDS011;5953;52.372;9.918;2023-08-17T00:30:06;5.17;;;2.30;;
11791;SDS011;5953;52.372;9.918;2023-08-17T00:32:34;4.17;;;2.10;;
11791;SDS011;5953;52.372;9.918;2023-08-17T00:35:02;5.90;;;2.40;;
11791;SDS011;5953;52.372;9.918;2023-08-17T00:37:30;3.43;;;2.33;;
11791;SDS011;5953;52.372;9.918;2023-08-17T00:39:58;4.97;;;2.63;;
11791;SDS011;5953;52.372;9.918;2023-08-17T00:42:26;5.87;;;2.47;;
11791;SDS011;5953;52.372;9.918;2023-08-17T00:44:55;6.97;;;2.53;;
11791;SDS011;5953;52.372;9.918;2023-08-17T00:47:23;5.13;;;2.50;;
11791;SDS011;5953;52.372;9.918;2023-08-17T00:49:52;4.47;;;2.20;;
11791;SDS011;5953;52.372;9.918;2023-08-17T00:52:20;5.67;;;2.30;;
11791;SDS011;5953;52.372;9.918;2023-08-17T00:54:48;5.23;;;2.47;;
11791;SDS011;5953;52.372;9.918;2023-08-17T00:57:16;5.80;;;2.90;;
11791;SDS011;5953;52.372;9.918;2023-08-17T00:59:46;4.17;;;2.57;;
11791;SDS011;5953;52.372;9.918;2023-08-17T01:02:31;6.10;;;2.47;;
11791;SDS011;5953;52.372;9.918;2023-08-17T01:04:59;10.03;;;2.90;;
11791;SDS011;5953;52.372;9.918;2023-08-17T01:07:27;3.23;;;2.37;;
11791;SDS011;5953;52.372;9.918;2023-08-17T01:09:55;4.90;;;2.67;;
11791;SDS011;5953;52.372;9.918;2023-08-17T01:12:24;4.07;;;2.60;;
11791;SDS011;5953;52.372;9.918;2023-08-17T01:14:59;5.07;;;2.57;;
11791;SDS011;5953;52.372;9.918;2023-08-17T01:17:33;5.87;;;2.90;;
11791;SDS011;5953;52.372;9.918;2023-08-17T01:20:05;6.50;;;2.90;;
11791;SDS011;5953;52.372;9.918;2023-08-17T01:22:35;7.53;;;3.47;;
11791;SDS011;5953;52.372;9.918;2023-08-17T01:25:06;6.63;;;3.33;;
11791;SDS011;5953;52.372;9.918;2023-08-17T01:27:36;5.93;;;3.80;;
11791;SDS011;5953;52.372;9.918;2023-08-17T01:30:07;6.73;;;3.63;;
11791;SDS011;5953;52.372;9.918;2023-08-17T01:32:37;7.67;;;3.40;;
11791;SDS011;5953;52.372;9.918;2023-08-17T01:35:09;7.37;;;3.60;;
11791;SDS011;5953;52.372;9.918;2023-08-17T01:37:47;5.90;;;3.63;;
11791;SDS011;5953;52.372;9.918;2023-08-17T01:40:21;5.37;;;3.30;;
11791;SDS011;5953;52.372;9.918;2023-08-17T01:42:50;6.00;;;3.33;;
11791;SDS011;5953;52.372;9.918;2023-08-17T01:45:19;4.27;;;2.97;;
11791;SDS011;5953;52.372;9.918;2023-08-17T01:47:46;5.53;;;2.70;;
11791;SDS011;5953;52.372;9.918;2023-08-17T01:50:14;4.60;;;2.63;;
11791;SDS011;5953;52.372;9.918;2023-08-17T01:52:41;5.00;;;3.20;;
11791;SDS011;5953;52.372;9.918;2023-08-17T01:55:09;5.50;;;3.10;;
11791;SDS011;5953;52.372;9.918;2023-08-17T01:57:38;8.53;;;3.47;;
11791;SDS011;5953;52.372;9.918;2023-08-17T02:00:07;5.07;;;3.10;;
11791;SDS011;5953;52.372;9.918;2023-08-17T02:02:37;9.33;;;3.20;;
11791;SDS011;5953;52.372;9.918;2023-08-17T02:05:05;5.53;;;3.20;;
11791;SDS011;5953;52.372;9.918;2023-08-17T02:07:33;4.87;;;3.27;;
11791;SDS011;5953;52.372;9.918;2023-08-17T02:10:01;4.93;;;3.00;;
11791;SDS011;5953;52.372;9.918;2023-08-17T02:12:29;6.60;;;3.33;;
11791;SDS011;5953;52.372;9.918;2023-08-17T02:14:58;6.67;;;3.67;;
11791;SDS011;5953;52.372;9.918;2023-08-17T02:17:26;5.50;;;3.40;;
11791;SDS011;5953;52.372;9.918;2023-08-17T02:19:54;7.37;;;3.20;;
11791;SDS011;5953;52.372;9.918;2023-08-17T02:22:22;5.40;;;3.00;;
11791;SDS011;5953;52.372;9.918;2023-08-17T02:24:49;7.00;;;3.57;;
11791;SDS011;5953;52.372;9.918;2023-08-17T02:27:17;8.97;;;3.67;;
11791;SDS011;5953;52.372;9.918;2023-08-17T02:29:45;5.67;;;4.10;;
11791;SDS011;5953;52.372;9.918;2023-08-17T02:32:14;7.73;;;3.50;;
11791;SDS011;5953;52.372;9.918;2023-08-17T02:34:42;6.37;;;4.10;;
11791;SDS011;5953;52.372;9.918;2023-08-17T02:37:10;4.13;;;3.53;;
11791;SDS011;5953;52.372;9.918;2023-08-17T02:39:37;5.40;;;4.03;;
11791;SDS011;5953;52.372;9.918;2023-08-17T02:42:05;4.40;;;3.00;;
11791;SDS011;5953;52.372;9.918;2023-08-17T02:44:33;4.37;;;3.87;;
11791;SDS011;5953;52.372;9.918;2023-08-17T02:47:00;7.43;;;3.60;;
11791;SDS011;5953;52.372;9.918;2023-08-17T02:49:30;4.10;;;3.53;;
11791;SDS011;5953;52.372;9.918;2023-08-17T02:51:57;4.03;;;3.33;;
11791;SDS011;5953;52.372;9.918;2023-08-17T02:54:25;4.53;;;3.73;;
11791;SDS011;5953;52.372;9.918;2023-08-17T02:56:53;7.27;;;3.63;;
11791;SDS011;5953;52.372;9.918;2023-08-17T02:59:20;4.17;;;3.77;;
11791;SDS011;5953;52.372;9.918;2023-08-17T03:01:48;6.23;;;3.90;;
11791;SDS011;5953;52.372;9.918;2023-08-17T03:04:16;6.13;;;3.60;;
11791;SDS011;5953;52.372;9.918;2023-08-17T03:06:45;4.43;;;4.03;;
11791;SDS011;5953;52.372;9.918;2023-08-17T03:09:13;5.87;;;4.20;;
11791;SDS011;5953;52.372;9.918;2023-08-17T03:11:41;5.03;;;3.87;;
11791;SDS011;5953;52.372;9.918;2023-08-17T03:14:08;6.00;;;4.10;;
11791;SDS011;5953;52.372;9.918;2023-08-17T03:16:36;4.40;;;3.50;;
11791;SDS011;5953;52.372;9.918;2023-08-17T03:19:04;5.07;;;3.50;;
11791;SDS011;5953;52.372;9.918;2023-08-17T03:21:33;9.13;;;3.73;;
11791;SDS011;5953;52.372;9.918;2023-08-17T03:24:03;5.47;;;3.87;;
11791;SDS011;5953;52.372;9.918;2023-08-17T03:26:31;4.30;;;3.43;;
11791;SDS011;5953;52.372;9.918;2023-08-17T03:28:59;4.00;;;3.40;;
11791;SDS011;5953;52.372;9.918;2023-08-17T03:31:27;4.33;;;3.67;;
11791;SDS011;5953;52.372;9.918;2023-08-17T03:33:55;4.43;;;3.60;;
11791;SDS011;5953;52.372;9.918;2023-08-17T03:36:22;3.63;;;3.33;;
11791;SDS011;5953;52.372;9.918;2023-08-17T03:38:50;5.20;;;3.93;;
11791;SDS011;5953;52.372;9.918;2023-08-17T03:41:20;5.10;;;3.20;;
11791;SDS011;5953;52.372;9.918;2023-08-17T03:43:49;3.80;;;3.50;;
11791;SDS011;5953;52.372;9.918;2023-08-17T03:46:17;3.83;;;3.27;;
11791;SDS011;5953;52.372;9.918;2023-08-17T03:48:45;4.57;;;4.17;;
11791;SDS011;5953;52.372;9.918;2023-08-17T03:51:12;5.33;;;3.87;;
11791;SDS011;5953;52.372;9.918;2023-08-17T03:53:40;3.80;;;3.50;;
11791;SDS011;5953;52.372;9.918;2023-08-17T03:56:08;4.17;;;3.20;;
11791;SDS011;5953;52.372;9.918;2023-08-17T03:58:37;3.40;;;3.10;;
11791;SDS011;5953;52.372;9.918;2023-08-17T04:01:05;4.17;;;3.30;;
11791;SDS011;5953;52.372;9.918;2023-08-17T04:03:33;4.30;;;3.10;;
11791;SDS011;5953;52.372;9.918;2023-08-17T04:06:04;5.13;;;3.23;;
11791;SDS011;5953;52.372;9.918;2023-08-17T04:08:33;3.90;;;3.60;;
11791;SDS011;5953;52.372;9.918;2023-08-17T04:11:00;4.53;;;3.27;;
11791;SDS011;5953;52.372;9.918;2023-08-17T04:13:28;5.40;;;3.27;;
11791;SDS011;5953;52.372;9.918;2023-08-17T04:15:57;3.73;;;3.43;;
11791;SDS011;5953;52.372;9.918;2023-08-17T04:18:25;4.30;;;3.90;;
11791;SDS011;5953;52.372;9.918;2023-08-17T04:20:53;3.70;;;3.40;;
11791;SDS011;5953;52.372;9.918;2023-08-17T04:23:21;3.87;;;3.57;;
11791;SDS011;5953;52.372;9.918;2023-08-17T04:25:48;4.80;;;3.77;;
11791;SDS011;5953;52.372;9.918;2023-08-17T04:28:16;4.57;;;3.57;;
11791;SDS011;5953;52.372;9.918;2023-08-17T04:30:44;4.67;;;3.93;;
11791;SDS011;5953;52.372;9.918;2023-08-17T04:33:13;3.97;;;3.67;;
11791;SDS011;5953;52.372;9.918;2023-08-17T04:35:41;5.13;;;3.93;;
11791;SDS011;5953;52.372;9.918;2023-08-17T04:38:08;5.63;;;3.87;;
11791;SDS011;5953;52.372;9.918;2023-08-17T04:40:36;4.20;;;3.80;;
11791;SDS011;5953;52.372;9.918;2023-08-17T04:43:05;4.77;;;3.80;;
11791;SDS011;5953;52.372;9.918;2023-08-17T04:45:37;4.67;;;4.27;;
11791;SDS011;5953;52.372;9.918;2023-08-17T04:48:05;4.93;;;4.13;;
11791;SDS011;5953;52.372;9.918;2023-08-17T04:50:34;4.80;;;4.13;;
11791;SDS011;5953;52.372;9.918;2023-08-17T04:53:02;4.67;;;4.27;;
11791;SDS011;5953;52.372;9.918;2023-08-17T04:55:30;5.03;;;4.63;;
11791;SDS011;5953;52.372;9.918;2023-08-17T04:57:59;5.27;;;4.77;;
11791;SDS011;5953;52.372;9.918;2023-08-17T05:00:28;5.07;;;4.57;;
11791;SDS011;5953;52.372;9.918;2023-08-17T05:02:56;5.97;;;5.23;;
11791;SDS011;5953;52.372;9.918;2023-08-17T05:05:24;4.83;;;4.33;;
11791;SDS011;5953;52.372;9.918;2023-08-17T05:07:54;7.20;;;4.80;;
11791;SDS011;5953;52.372;9.918;2023-08-17T05:10:22;5.33;;;4.83;;
11791;SDS011;5953;52.372;9.918;2023-08-17T05:12:50;6.80;;;4.80;;
11791;SDS011;5953;52.372;9.918;2023-08-17T05:15:17;5.03;;;4.53;;
11791;SDS011;5953;52.372;9.918;2023-08-17T05:17:46;5.67;;;5.27;;
11791;SDS011;5953;52.372;9.918;2023-08-17T05:20:14;5.63;;;4.63;;
11791;SDS011;5953;52.372;9.918;2023-08-17T05:22:42;5.00;;;4.50;;
11791;SDS011;5953;52.372;9.918;2023-08-17T05:25:11;7.30;;;4.40;;
11791;SDS011;5953;52.372;9.918;2023-08-17T05:27:39;5.73;;;5.10;;
11791;SDS011;5953;52.372;9.918;2023-08-17T05:30:07;6.17;;;5.10;;
11791;SDS011;5953;52.372;9.918;2023-08-17T05:32:36;4.90;;;4.50;;
11791;SDS011;5953;52.372;9.918;2023-08-17T05:35:04;6.20;;;5.03;;
11791;SDS011;5953;52.372;9.918;2023-08-17T05:37:32;5.87;;;4.77;;
11791;SDS011;5953;52.372;9.918;2023-08-17T05:40:00;5.40;;;4.90;;
11791;SDS011;5953;52.372;9.918;2023-08-17T05:42:29;5.00;;;4.60;;
11791;SDS011;5953;52.372;9.918;2023-08-17T05:44:57;5.20;;;4.80;;
11791;SDS011;5953;52.372;9.918;2023-08-17T05:47:24;5.33;;;4.83;;
11791;SDS011;5953;52.372;9.918;2023-08-17T05:49:53;4.87;;;4.37;;
11791;SDS011;5953;52.372;9.918;2023-08-17T05:52:20;5.43;;;4.93;;
11791;SDS011;5953;52.372;9.918;2023-08-17T05:54:48;4.80;;;4.30;;
11791;SDS011;5953;52.372;9.918;2023-08-17T05:57:17;5.87;;;4.67;;
11791;SDS011;5953;52.372;9.918;2023-08-17T05:59:46;4.77;;;4.33;;
11791;SDS011;5953;52.372;9.918;2023-08-17T06:02:13;4.87;;;4.47;;
11791;SDS011;5953;52.372;9.918;2023-08-17T06:04:41;5.43;;;4.93;;
11791;SDS011;5953;52.372;9.918;2023-08-17T06:07:09;4.83;;;4.33;;
11791;SDS011;5953;52.372;9.918;2023-08-17T06:09:37;8.90;;;5.77;;
11791;SDS011;5953;52.372;9.918;2023-08-17T06:12:05;4.70;;;4.30;;
11791;SDS011;5953;52.372;9.918;2023-08-17T06:14:33;5.13;;;4.57;;
11791;SDS011;5953;52.372;9.918;2023-08-17T06:17:03;5.83;;;4.33;;
11791;SDS011;5953;52.372;9.918;2023-08-17T06:19:31;6.60;;;4.93;;
11791;SDS011;5953;52.372;9.918;2023-08-17T06:21:59;5.30;;;4.27;;
11791;SDS011;5953;52.372;9.918;2023-08-17T06:24:27;5.10;;;4.60;;
11791;SDS011;5953;52.372;9.918;2023-08-17T06:26:55;5.20;;;4.53;;
11791;SDS011;5953;52.372;9.918;2023-08-17T06:29:23;5.27;;;4.50;;
11791;SDS011;5953;52.372;9.918;2023-08-17T06:31:50;4.53;;;4.13;;
11791;SDS011;5953;52.372;9.918;2023-08-17T06:34:19;4.93;;;4.40;;
11791;SDS011;5953;52.372;9.918;2023-08-17T06:36:56;5.33;;;4.83;;
11791;SDS011;5953;52.372;9.918;2023-08-17T06:39:25;4.50;;;4.10;;
11791;SDS011;5953;52.372;9.918;2023-08-17T06:41:53;4.80;;;4.37;;
11791;SDS011;5953;52.372;9.918;2023-08-17T06:44:21;4.50;;;4.10;;
11791;SDS011;5953;52.372;9.918;2023-08-17T06:46:49;5.03;;;4.53;;
11791;SDS011;5953;52.372;9.918;2023-08-17T06:49:16;7.67;;;4.00;;
11791;SDS011;5953;52.372;9.918;2023-08-17T06:51:46;4.23;;;3.93;;
11791;SDS011;5953;52.372;9.918;2023-08-17T06:54:13;4.20;;;3.80;;
11791;SDS011;5953;52.372;9.918;2023-08-17T06:56:41;4.57;;;3.90;;
11791;SDS011;5953;52.372;9.918;2023-08-17T06:59:09;4.23;;;3.60;;
11791;SDS011;5953;52.372;9.918;2023-08-17T07:01:37;4.60;;;4.20;;
11791;SDS011;5953;52.372;9.918;2023-08-17T07:04:05;5.17;;;4.17;;
11791;SDS011;5953;52.372;9.918;2023-08-17T07:06:34;4.97;;;4.57;;
11791;SDS011;5953;52.372;9.918;2023-08-17T07:09:03;4.47;;;3.97;;
11791;SDS011;5953;52.372;9.918;2023-08-17T07:11:32;4.97;;;4.40;;
11791;SDS011;5953;52.372;9.918;2023-08-17T07:13:59;5.77;;;4.50;;
11791;SDS011;5953;52.372;9.918;2023-08-17T07:16:27;6.23;;;4.50;;
11791;SDS011;5953;52.372;9.918;2023-08-17T07:18:55;5.20;;;4.70;;
11791;SDS011;5953;52.372;9.918;2023-08-17T07:21:23;4.27;;;3.90;;
11791;SDS011;5953;52.372;9.918;2023-08-17T07:23:51;5.50;;;4.10;;
11791;SDS011;5953;52.372;9.918;2023-08-17T07:26:23;4.33;;;3.93;;
11791;SDS011;5953;52.372;9.918;2023-08-17T07:28:50;7.47;;;4.33;;
11791;SDS011;5953;52.372;9.918;2023-08-17T07:31:18;5.00;;;4.50;;
11791;SDS011;5953;52.372;9.918;2023-08-17T07:33:46;4.90;;;4.50;;
11791;SDS011;5953;52.372;9.918;2023-08-17T07:36:14;4.93;;;4.53;;
11791;SDS011;5953;52.372;9.918;2023-08-17T07:38:42;5.30;;;4.70;;
11791;SDS011;5953;52.372;9.918;2023-08-17T07:41:09;4.97;;;3.93;;
11791;SDS011;5953;52.372;9.918;2023-08-17T07:43:38;5.17;;;4.23;;
11791;SDS011;5953;52.372;9.918;2023-08-17T07:46:06;4.13;;;3.83;;
11791;SDS011;5953;52.372;9.918;2023-08-17T07:48:34;4.63;;;4.23;;
11791;SDS011;5953;52.372;9.918;2023-08-17T07:51:02;4.90;;;4.43;;
11791;SDS011;5953;52.372;9.918;2023-08-17T07:53:30;5.20;;;4.33;;
11791;SDS011;5953;52.372;9.918;2023-08-17T07:55:58;6.13;;;3.90;;
11791;SDS011;5953;52.372;9.918;2023-08-17T07:58:25;4.60;;;3.70;;
11791;SDS011;5953;52.372;9.918;2023-08-17T08:00:55;4.10;;;3.80;;
11791;SDS011;5953;52.372;9.918;2023-08-17T08:03:22;5.80;;;3.90;;
11791;SDS011;5953;52.372;9.918;2023-08-17T08:05:50;5.07;;;4.10;;
11791;SDS011;5953;52.372;9.918;2023-08-17T08:08:19;4.43;;;3.33;;
11791;SDS011;5953;52.372;9.918;2023-08-17T08:10:47;4.03;;;3.63;;
11791;SDS011;5953;52.372;9.918;2023-08-17T08:13:15;3.53;;;3.23;;
11791;SDS011;5953;52.372;9.918;2023-08-17T08:15:43;5.37;;;3.70;;
11791;SDS011;5953;52.372;9.918;2023-08-17T08:18:12;3.97;;;3.50;;
11791;SDS011;5953;52.372;9.918;2023-08-17T08:20:42;5.33;;;3.70;;
11791;SDS011;5953;52.372;9.918;2023-08-17T08:23:10;4.97;;;3.73;;
11791;SDS011;5953;52.372;9.918;2023-08-17T08:25:37;4.40;;;3.53;;
11791;SDS011;5953;52.372;9.918;2023-08-17T08:28:05;5.17;;;3.90;;
11791;SDS011;5953;52.372;9.918;2023-08-17T08:30:33;5.33;;;3.77;;
11791;SDS011;5953;52.372;9.918;2023-08-17T08:33:01;4.37;;;3.97;;
11791;SDS011;5953;52.372;9.918;2023-08-17T08:35:30;3.67;;;3.37;;
11791;SDS011;5953;52.372;9.918;2023-08-17T08:37:59;3.40;;;3.10;;
11791;SDS011;5953;52.372;9.918;2023-08-17T08:40:28;3.77;;;3.47;;
11791;SDS011;5953;52.372;9.918;2023-08-17T08:42:57;6.60;;;3.63;;
11791;SDS011;5953;52.372;9.918;2023-08-17T08:45:26;4.03;;;3.77;;
11791;SDS011;5953;52.372;9.918;2023-08-17T08:47:57;3.93;;;3.63;;
11791;SDS011;5953;52.372;9.918;2023-08-17T08:50:28;4.20;;;3.80;;
11791;SDS011;5953;52.372;9.918;2023-08-17T08:53:02;3.50;;;3.20;;
11791;SDS011;5953;52.372;9.918;2023-08-17T08:55:33;4.03;;;3.73;;
11791;SDS011;5953;52.372;9.918;2023-08-17T08:58:11;5.30;;;3.93;;
11791;SDS011;5953;52.372;9.918;2023-08-17T09:00:39;4.27;;;3.97;;
11791;SDS011;5953;52.372;9.918;2023-08-17T09:03:07;4.00;;;3.70;;
11791;SDS011;5953;52.372;9.918;2023-08-17T09:05:38;4.00;;;3.70;;
11791;SDS011;5953;52.372;9.918;2023-08-17T09:08:08;4.07;;;3.30;;
11791;SDS011;5953;52.372;9.918;2023-08-17T09:10:43;3.67;;;3.37;;
11791;SDS011;5953;52.372;9.918;2023-08-17T09:13:10;3.90;;;3.50;;
11791;SDS011;5953;52.372;9.918;2023-08-17T09:15:38;4.63;;;3.53;;
11791;SDS011;5953;52.372;9.918;2023-08-17T09:18:06;4.23;;;3.83;;
11791;SDS011;5953;52.372;9.918;2023-08-17T09:20:40;7.07;;;4.30;;
11791;SDS011;5953;52.372;9.918;2023-08-17T09:23:14;4.67;;;4.03;;
11791;SDS011;5953;52.372;9.918;2023-08-17T09:25:44;4.30;;;3.90;;
11791;SDS011;5953;52.372;9.918;2023-08-17T09:28:13;3.67;;;3.37;;
11791;SDS011;5953;52.372;9.918;2023-08-17T09:30:54;4.10;;;3.70;;
11791;SDS011;5953;52.372;9.918;2023-08-17T09:33:24;3.40;;;3.20;;
11791;SDS011;5953;52.372;9.918;2023-08-17T09:35:55;4.87;;;3.47;;
11791;SDS011;5953;52.372;9.918;2023-08-17T09:38:25;3.20;;;3.00;;
11791;SDS011;5953;52.372;9.918;2023-08-17T09:40:54;3.80;;;3.50;;
11791;SDS011;5953;52.372;9.918;2023-08-17T09:43:22;3.37;;;3.07;;
11791;SDS011;5953;52.372;9.918;2023-08-17T09:45:51;5.17;;;3.10;;
11791;SDS011;5953;52.372;9.918;2023-08-17T09:48:21;4.90;;;3.70;;
11791;SDS011;5953;52.372;9.918;2023-08-17T09:50:59;3.67;;;3.30;;
11791;SDS011;5953;52.372;9.918;2023-08-17T09:53:28;3.70;;;3.40;;
11791;SDS011;5953;52.372;9.918;2023-08-17T09:55:56;3.57;;;3.27;;
11791;SDS011;5953;52.372;9.918;2023-08-17T09:58:26;3.60;;;3.30;;
11791;SDS011;5953;52.372;9.918;2023-08-17T10:00:57;2.60;;;2.40;;
11791;SDS011;5953;52.372;9.918;2023-08-17T10:03:28;2.83;;;2.63;;
11791;SDS011;5953;52.372;9.918;2023-08-17T10:06:03;2.87;;;2.67;;
11791;SDS011;5953;52.372;9.918;2023-08-17T10:08:33;3.80;;;2.73;;
11791;SDS011;5953;52.372;9.918;2023-08-17T10:11:10;2.80;;;2.60;;
11791;SDS011;5953;52.372;9.918;2023-08-17T10:13:41;3.07;;;2.80;;
11791;SDS011;5953;52.372;9.918;2023-08-17T10:16:12;2.40;;;2.20;;
11791;SDS011;5953;52.372;9.918;2023-08-17T10:18:49;3.57;;;3.27;;
11791;SDS011;5953;52.372;9.918;2023-08-17T10:21:23;3.80;;;2.60;;
11791;SDS011;5953;52.372;9.918;2023-08-17T10:23:55;3.07;;;2.70;;
11791;SDS011;5953;52.372;9.918;2023-08-17T10:26:24;3.37;;;2.87;;
11791;SDS011;5953;52.372;9.918;2023-08-17T10:28:52;3.73;;;2.80;;
11791;SDS011;5953;52.372;9.918;2023-08-17T10:31:26;4.27;;;3.27;;
11791;SDS011;5953;52.372;9.918;2023-08-17T10:33:54;4.13;;;3.37;;
11791;SDS011;5953;52.372;9.918;2023-08-17T10:36:24;3.60;;;3.30;;
11791;SDS011;5953;52.372;9.918;2023-08-17T10:41:46;3.80;;;3.47;;
11791;SDS011;5953;52.372;9.918;2023-08-17T10:44:14;4.57;;;3.40;;
11791;SDS011;5953;52.372;9.918;2023-08-17T10:46:43;4.10;;;3.70;;
11791;SDS011;5953;52.372;9.918;2023-08-17T10:52:03;3.87;;;3.53;;
11791;SDS011;5953;52.372;9.918;2023-08-17T10:54:37;4.00;;;3.13;;
11791;SDS011;5953;52.372;9.918;2023-08-17T10:57:24;4.27;;;3.00;;
11791;SDS011;5953;52.372;9.918;2023-08-17T11:02:53;4.37;;;3.97;;
11791;SDS011;5953;52.372;9.918;2023-08-17T11:05:34;7.33;;;4.10;;
11791;SDS011;5953;52.372;9.918;2023-08-17T11:08:07;4.60;;;3.70;;
11791;SDS011;5953;52.372;9.918;2023-08-17T11:10:36;5.77;;;3.83;;
11791;SDS011;5953;52.372;9.918;2023-08-17T11:13:05;6.10;;;3.70;;
11791;SDS011;5953;52.372;9.918;2023-08-17T11:15:36;5.70;;;3.93;;
11791;SDS011;5953;52.372;9.918;2023-08-17T11:18:06;5.20;;;3.87;;
11791;SDS011;5953;52.372;9.918;2023-08-17T11:20:36;3.93;;;3.63;;
11791;SDS011;5953;52.372;9.918;2023-08-17T11:23:07;3.50;;;3.13;;
11791;SDS011;5953;52.372;9.918;2023-08-17T11:25:35;3.80;;;3.30;;
11791;SDS011;5953;52.372;9.918;2023-08-17T11:28:06;3.80;;;3.50;;
11791;SDS011;5953;52.372;9.918;2023-08-17T11:30:35;4.43;;;3.20;;
11791;SDS011;5953;52.372;9.918;2023-08-17T11:33:05;4.63;;;2.90;;
11791;SDS011;5953;52.372;9.918;2023-08-17T11:35:35;4.67;;;3.37;;
11791;SDS011;5953;52.372;9.918;2023-08-17T11:38:04;3.70;;;3.30;;
11791;SDS011;5953;52.372;9.918;2023-08-17T11:40:35;4.03;;;3.13;;
11791;SDS011;5953;52.372;9.918;2023-08-17T11:43:04;3.53;;;3.07;;
11791;SDS011;5953;52.372;9.918;2023-08-17T11:45:32;3.80;;;3.20;;
11791;SDS011;5953;52.372;9.918;2023-08-17T11:48:00;3.70;;;3.00;;
11791;SDS011;5953;52.372;9.918;2023-08-17T11:50:30;3.80;;;3.33;;
11791;SDS011;5953;52.372;9.918;2023-08-17T11:52:58;3.77;;;3.47;;
11791;SDS011;5953;52.372;9.918;2023-08-17T11:55:27;4.70;;;3.23;;
11791;SDS011;5953;52.372;9.918;2023-08-17T11:57:56;3.83;;;3.40;;
11791;SDS011;5953;52.372;9.918;2023-08-17T12:00:24;5.10;;;3.37;;
11791;SDS011;5953;52.372;9.918;2023-08-17T12:02:52;5.30;;;3.40;;
11791;SDS011;5953;52.372;9.918;2023-08-17T12:05:20;4.27;;;3.87;;
11791;SDS011;5953;52.372;9.918;2023-08-17T12:07:50;4.90;;;3.93;;
11791;SDS011;5953;52.372;9.918;2023-08-17T12:10:18;3.63;;;3.33;;
11791;SDS011;5953;52.372;9.918;2023-08-17T12:12:46;4.10;;;3.80;;
11791;SDS011;5953;52.372;9.918;2023-08-17T12:15:16;3.77;;;3.13;;
11791;SDS011;5953;52.372;9.918;2023-08-17T12:17:45;4.10;;;3.80;;
11791;SDS011;5953;52.372;9.918;2023-08-17T12:20:16;4.97;;;3.80;;
11791;SDS011;5953;52.372;9.918;2023-08-17T12:22:45;5.80;;;3.80;;
11791;SDS011;5953;52.372;9.918;2023-08-17T12:25:13;4.17;;;3.40;;
11791;SDS011;5953;52.372;9.918;2023-08-17T12:27:42;4.23;;;3.60;;
11791;SDS011;5953;52.372;9.918;2023-08-17T12:30:13;4.43;;;3.93;;
11791;SDS011;5953;52.372;9.918;2023-08-17T12:32:53;5.00;;;3.53;;
11791;SDS011;5953;52.372;9.918;2023-08-17T12:35:24;4.27;;;3.47;;
11791;SDS011;5953;52.372;9.918;2023-08-17T12:37:52;3.53;;;3.23;;
11791;SDS011;5953;52.372;9.918;2023-08-17T12:40:20;4.20;;;3.80;;
11791;SDS011;5953;52.372;9.918;2023-08-17T12:42:49;5.13;;;3.83;;
11791;SDS011;5953;52.372;9.918;2023-08-17T12:45:17;4.77;;;3.30;;
11791;SDS011;5953;52.372;9.918;2023-08-17T12:47:45;3.67;;;3.40;;
11791;SDS011;5953;52.372;9.918;2023-08-17T12:50:14;3.73;;;2.90;;
11791;SDS011;5953;52.372;9.918;2023-08-17T12:52:43;5.57;;;3.10;;
11791;SDS011;5953;52.372;9.918;2023-08-17T12:55:12;5.00;;;2.80;;
11791;SDS011;5953;52.372;9.918;2023-08-17T12:57:40;5.50;;;3.33;;
11791;SDS011;5953;52.372;9.918;2023-08-17T13:00:08;5.80;;;3.63;;
11791;SDS011;5953;52.372;9.918;2023-08-17T13:02:37;4.70;;;3.70;;
11791;SDS011;5953;52.372;9.918;2023-08-17T13:05:05;4.57;;;3.67;;
11791;SDS011;5953;52.372;9.918;2023-08-17T13:07:34;4.40;;;3.70;;
11791;SDS011;5953;52.372;9.918;2023-08-17T13:10:02;4.70;;;3.53;;
11791;SDS011;5953;52.372;9.918;2023-08-17T13:12:30;4.90;;;3.77;;
11791;SDS011;5953;52.372;9.918;2023-08-17T13:14:58;5.97;;;4.20;;
11791;SDS011;5953;52.372;9.918;2023-08-17T13:17:25;7.90;;;4.13;;
11791;SDS011;5953;52.372;9.918;2023-08-17T13:19:53;5.47;;;4.40;;
11791;SDS011;5953;52.372;9.918;2023-08-17T13:22:21;5.57;;;4.00;;
11791;SDS011;5953;52.372;9.918;2023-08-17T13:24:51;4.70;;;3.43;;
11791;SDS011;5953;52.372;9.918;2023-08-17T13:27:19;5.53;;;3.47;;
11791;SDS011;5953;52.372;9.918;2023-08-17T13:29:49;5.03;;;3.37;;
11791;SDS011;5953;52.372;9.918;2023-08-17T13:32:17;5.20;;;3.40;;
11791;SDS011;5953;52.372;9.918;2023-08-17T13:34:44;4.57;;;3.93;;
11791;SDS011;5953;52.372;9.918;2023-08-17T13:37:12;8.20;;;4.77;;
11791;SDS011;5953;52.372;9.918;2023-08-17T13:39:40;5.60;;;4.33;;
11791;SDS011;5953;52.372;9.918;2023-08-17T13:42:09;6.53;;;4.40;;
11791;SDS011;5953;52.372;9.918;2023-08-17T13:44:38;8.53;;;5.00;;
11791;SDS011;5953;52.372;9.918;2023-08-17T13:47:08;5.63;;;4.30;;
11791;SDS011;5953;52.372;9.918;2023-08-17T13:49:35;6.17;;;4.70;;
11791;SDS011;5953;52.372;9.918;2023-08-17T13:52:04;4.43;;;3.97;;
11791;SDS011;5953;52.372;9.918;2023-08-17T13:54:32;6.40;;;4.63;;
11791;SDS011;5953;52.372;9.918;2023-08-17T13:57:00;7.43;;;6.00;;
11791;SDS011;5953;52.372;9.918;2023-08-17T13:59:29;6.80;;;4.67;;
11791;SDS011;5953;52.372;9.918;2023-08-17T14:01:57;6.30;;;4.80;;
11791;SDS011;5953;52.372;9.918;2023-08-17T14:04:25;6.73;;;4.57;;
11791;SDS011;5953;52.372;9.918;2023-08-17T14:06:52;7.50;;;5.33;;
11791;SDS011;5953;52.372;9.918;2023-08-17T14:09:20;6.87;;;4.77;;
11791;SDS011;5953;52.372;9.918;2023-08-17T14:11:48;8.43;;;5.17;;
11791;SDS011;5953;52.372;9.918;2023-08-17T14:14:16;7.77;;;5.33;;
11791;SDS011;5953;52.372;9.918;2023-08-17T14:16:45;7.70;;;4.93;;
11791;SDS011;5953;52.372;9.918;2023-08-17T14:19:12;7.37;;;5.30;;
11791;SDS011;5953;52.372;9.918;2023-08-17T14:21:40;8.30;;;4.90;;
11791;SDS011;5953;52.372;9.918;2023-08-17T14:24:08;10.03;;;5.40;;
11791;SDS011;5953;52.372;9.918;2023-08-17T14:26:36;9.03;;;5.30;;
11791;SDS011;5953;52.372;9.918;2023-08-17T14:29:04;7.10;;;5.17;;
11791;SDS011;5953;52.372;9.918;2023-08-17T14:31:32;9.53;;;5.50;;
11791;SDS011;5953;52.372;9.918;2023-08-17T14:34:01;8.53;;;5.90;;
11791;SDS011;5953;52.372;9.918;2023-08-17T14:36:32;10.40;;;5.90;;
11791;SDS011;5953;52.372;9.918;2023-08-17T14:39:00;10.80;;;6.90;;
11791;SDS011;5953;52.372;9.918;2023-08-17T14:41:30;11.33;;;6.00;;
11791;SDS011;5953;52.372;9.918;2023-08-17T14:43:59;13.50;;;7.00;;
11791;SDS011;5953;52.372;9.918;2023-08-17T14:46:29;11.70;;;6.67;;
11791;SDS011;5953;52.372;9.918;2023-08-17T14:48:57;12.20;;;5.67;;
11791;SDS011;5953;52.372;9.918;2023-08-17T14:51:28;9.87;;;6.00;;
11791;SDS011;5953;52.372;9.918;2023-08-17T14:53:57;10.77;;;6.00;;
11791;SDS011;5953;52.372;9.918;2023-08-17T14:56:25;12.70;;;6.63;;
11791;SDS011;5953;52.372;9.918;2023-08-17T14:58:53;11.80;;;6.23;;
11791;SDS011;5953;52.372;9.918;2023-08-17T15:01:20;9.73;;;6.07;;
11791;SDS011;5953;52.372;9.918;2023-08-17T15:03:48;10.00;;;6.30;;
11791;SDS011;5953;52.372;9.918;2023-08-17T15:06:16;13.20;;;6.90;;
11791;SDS011;5953;52.372;9.918;2023-08-17T15:09:01;13.40;;;6.27;;
11791;SDS011;5953;52.372;9.918;2023-08-17T15:11:29;13.07;;;6.20;;
11791;SDS011;5953;52.372;9.918;2023-08-17T15:13:57;9.73;;;6.03;;
11791;SDS011;5953;52.372;9.918;2023-08-17T15:16:25;15.13;;;6.63;;
11791;SDS011;5953;52.372;9.918;2023-08-17T15:18:54;12.20;;;6.37;;